sensor_id;sensor_type;location;lat;lon;timestamp;pressure;altitude;pressure_sealevel;temperature;humidity
45050;BME280;61798;48.048;-1.928;2023-03-03T00:01:05;101489.28;;;2.40;100.00
45050;BME280;61798;48.048;-1.928;2023-03-03T00:03:17;101502.13;;;2.34;100.00
45050;BME280;61798;48.048;-1.928;2023-03-03T00:05:25;101465.53;;;2.16;100.00
45050;BME280;61798;48.048;-1.928;2023-03-03T00:07:32;101479.88;;;2.25;100.00
45050;BME280;61798;48.048;-1.928;2023-03-03T00:09:39;101451.91;;;1.97;100.00
45050;BME280;61798;48.048;-1.928;2023-03-03T00:11:55;101486.84;;;2.26;100.00
45050;BME280;61798;48.048;-1.928;2023-03-03T00:14:17;101484.47;;;2.34;100.00
45050;BME280;61798;48.048;-1.928;2023-03-03T00:16:39;101500.78;;;2.28;100.00
45050;BME280;61798;48.048;-1.928;2023-03-03T00:18:47;101493.25;;;2.35;100.00
45050;BME280;61798;48.048;-1.928;2023-03-03T00:20:59;101479.19;;;2.34;100.00
45050;BME280;61798;48.048;-1.928;2023-03-03T00:23:34;101495.63;;;2.26;100.00
45050;BME280;61798;48.048;-1.928;2023-03-03T00:25:49;101494.19;;;2.22;100.00
45050;BME280;61798;48.048;-1.928;2023-03-03T00:28:06;101495.38;;;2.18;100.00
45050;BME280;61798;48.048;-1.928;2023-03-03T00:30:21;101503.41;;;2.16;100.00
45050;BME280;61798;48.048;-1.928;2023-03-03T00:32:43;101498.97;;;2.17;100.00
45050;BME280;61798;48.048;-1.928;2023-03-03T00:35:23;101490.25;;;2.03;100.00
45050;BME280;61798;48.048;-1.928;2023-03-03T00:37:34;101499.88;;;2.04;100.00
45050;BME280;61798;48.048;-1.928;2023-03-03T00:39:41;101474.63;;;2.00;100.00
45050;BME280;61798;48.048;-1.928;2023-03-03T00:41:49;101490.25;;;2.03;100.00
45050;BME280;61798;48.048;-1.928;2023-03-03T00:43:56;101492.88;;;2.03;100.00
45050;BME280;61798;48.048;-1.928;2023-03-03T00:46:04;101495.28;;;1.95;100.00
45050;BME280;61798;48.048;-1.928;2023-03-03T00:50:44;101493.59;;;1.94;100.00
45050;BME280;61798;48.048;-1.928;2023-03-03T00:53:12;101477.13;;;1.90;100.00
45050;BME280;61798;48.048;-1.928;2023-03-03T00:55:20;101476.50;;;1.86;100.00
45050;BME280;61798;48.048;-1.928;2023-03-03T00:57:26;101447.97;;;1.67;100.00
45050;BME280;61798;48.048;-1.928;2023-03-03T00:59:33;101479.50;;;1.82;100.00
45050;BME280;61798;48.048;-1.928;2023-03-03T01:01:40;101427.00;;;1.52;100.00
45050;BME280;61798;48.048;-1.928;2023-03-03T01:03:46;101473.97;;;1.85;100.00
45050;BME280;61798;48.048;-1.928;2023-03-03T01:05:54;101478.38;;;1.73;100.00
45050;BME280;61798;48.048;-1.928;2023-03-03T01:08:00;101480.91;;;1.74;100.00
45050;BME280;61798;48.048;-1.928;2023-03-03T01:10:08;101471.09;;;1.63;100.00
45050;BME280;61798;48.048;-1.928;2023-03-03T01:12:16;101486.28;;;1.73;100.00
45050;BME280;61798;48.048;-1.928;2023-03-03T01:14:23;101459.38;;;1.43;100.00
45050;BME280;61798;48.048;-1.928;2023-03-03T01:16:30;101485.09;;;1.52;100.00
45050;BME280;61798;48.048;-1.928;2023-03-03T01:18:39;101481.47;;;1.66;100.00
45050;BME280;61798;48.048;-1.928;2023-03-03T01:20:48;101466.88;;;1.36;100.00
45050;BME280;61798;48.048;-1.928;2023-03-03T01:22:55;101465.66;;;1.53;100.00
45050;BME280;61798;48.048;-1.928;2023-03-03T01:25:02;101487.53;;;1.55;100.00
45050;BME280;61798;48.048;-1.928;2023-03-03T01:27:10;101479.66;;;1.42;100.00
45050;BME280;61798;48.048;-1.928;2023-03-03T01:29:17;101473.81;;;1.50;100.00
45050;BME280;61798;48.048;-1.928;2023-03-03T01:31:26;101461.66;;;1.47;100.00
45050;BME280;61798;48.048;-1.928;2023-03-03T01:33:34;101474.97;;;1.59;100.00
45050;BME280;61798;48.048;-1.928;2023-03-03T01:35:46;101474.53;;;1.52;100.00
45050;BME280;61798;48.048;-1.928;2023-03-03T01:37:53;101481.88;;;1.35;100.00
45050;BME280;61798;48.048;-1.928;2023-03-03T01:40:02;101485.81;;;1.30;100.00
45050;BME280;61798;48.048;-1.928;2023-03-03T01:42:08;101477.00;;;1.18;100.00
45050;BME280;61798;48.048;-1.928;2023-03-03T01:44:16;101484.53;;;1.35;100.00
45050;BME280;61798;48.048;-1.928;2023-03-03T01:48:54;101481.69;;;1.39;100.00
45050;BME280;61798;48.048;-1.928;2023-03-03T01:51:25;101485.78;;;1.43;100.00
45050;BME280;61798;48.048;-1.928;2023-03-03T01:53:55;101480.31;;;1.33;100.00
45050;BME280;61798;48.048;-1.928;2023-03-03T01:56:06;101482.34;;;1.29;100.00
45050;BME280;61798;48.048;-1.928;2023-03-03T01:58:36;101481.63;;;1.27;100.00
45050;BME280;61798;48.048;-1.928;2023-03-03T02:00:49;101486.16;;;1.25;100.00
45050;BME280;61798;48.048;-1.928;2023-03-03T02:02:58;101451.59;;;0.90;100.00
45050;BME280;61798;48.048;-1.928;2023-03-03T02:05:05;101473.69;;;1.27;100.00
45050;BME280;61798;48.048;-1.928;2023-03-03T02:07:14;101476.25;;;1.15;100.00
45050;BME280;61798;48.048;-1.928;2023-03-03T02:09:58;101470.75;;;1.19;100.00
45050;BME280;61798;48.048;-1.928;2023-03-03T02:12:12;101474.38;;;1.04;100.00
45050;BME280;61798;48.048;-1.928;2023-03-03T02:14:23;101458.84;;;1.00;100.00
45050;BME280;61798;48.048;-1.928;2023-03-03T02:16:30;101476.78;;;1.08;100.00
45050;BME280;61798;48.048;-1.928;2023-03-03T02:18:38;101468.59;;;0.86;100.00
45050;BME280;61798;48.048;-1.928;2023-03-03T02:23:07;101435.16;;;0.73;100.00
45050;BME280;61798;48.048;-1.928;2023-03-03T02:25:33;101455.09;;;0.78;100.00
45050;BME280;61798;48.048;-1.928;2023-03-03T02:27:43;101468.91;;;0.81;100.00
45050;BME280;61798;48.048;-1.928;2023-03-03T02:29:50;101441.38;;;0.72;100.00
45050;BME280;61798;48.048;-1.928;2023-03-03T02:31:58;101465.41;;;1.07;100.00
45050;BME280;61798;48.048;-1.928;2023-03-03T02:34:05;101465.66;;;0.91;100.00
45050;BME280;61798;48.048;-1.928;2023-03-03T02:36:18;101471.09;;;1.01;100.00
45050;BME280;61798;48.048;-1.928;2023-03-03T02:38:42;101468.91;;;0.94;100.00
45050;BME280;61798;48.048;-1.928;2023-03-03T02:46:14;101466.19;;;0.83;100.00
45050;BME280;61798;48.048;-1.928;2023-03-03T02:48:21;101458.06;;;0.73;100.00
45050;BME280;61798;48.048;-1.928;2023-03-03T02:50:28;101448.13;;;0.77;100.00
45050;BME280;61798;48.048;-1.928;2023-03-03T02:52:35;101478.31;;;0.99;100.00
45050;BME280;61798;48.048;-1.928;2023-03-03T02:54:46;101477.84;;;1.05;100.00
45050;BME280;61798;48.048;-1.928;2023-03-03T02:56:54;101455.19;;;0.89;100.00
45050;BME280;61798;48.048;-1.928;2023-03-03T02:59:01;101432.72;;;0.83;100.00
45050;BME280;61798;48.048;-1.928;2023-03-03T03:01:09;101470.47;;;0.97;100.00
45050;BME280;61798;48.048;-1.928;2023-03-03T03:03:16;101462.88;;;0.92;100.00
45050;BME280;61798;48.048;-1.928;2023-03-03T03:05:24;101449.59;;;0.81;100.00
45050;BME280;61798;48.048;-1.928;2023-03-03T03:07:31;101434.84;;;0.78;100.00
45050;BME280;61798;48.048;-1.928;2023-03-03T03:09:38;101439.81;;;0.70;100.00
45050;BME280;61798;48.048;-1.928;2023-03-03T03:11:46;101458.84;;;1.00;100.00
45050;BME280;61798;48.048;-1.928;2023-03-03T03:13:53;101449.19;;;0.87;100.00
45050;BME280;61798;48.048;-1.928;2023-03-03T03:16:02;101449.38;;;0.84;100.00
45050;BME280;61798;48.048;-1.928;2023-03-03T03:18:10;101397.84;;;0.40;100.00
45050;BME280;61798;48.048;-1.928;2023-03-03T03:20:17;101470.94;;;0.91;100.00
45050;BME280;61798;48.048;-1.928;2023-03-03T03:22:24;101456.25;;;0.87;100.00
45050;BME280;61798;48.048;-1.928;2023-03-03T03:24:31;101461.22;;;0.78;100.00
45050;BME280;61798;48.048;-1.928;2023-03-03T03:26:39;101461.44;;;0.75;100.00
45050;BME280;61798;48.048;-1.928;2023-03-03T03:28:47;101474.09;;;0.83;100.00
45050;BME280;61798;48.048;-1.928;2023-03-03T03:30:54;101469.31;;;1.01;100.00
45050;BME280;61798;48.048;-1.928;2023-03-03T03:33:01;101469.63;;;0.97;100.00
45050;BME280;61798;48.048;-1.928;2023-03-03T03:35:08;101450.66;;;0.78;100.00
45050;BME280;61798;48.048;-1.928;2023-03-03T03:37:15;101466.69;;;0.88;100.00
45050;BME280;61798;48.048;-1.928;2023-03-03T03:39:23;101459.97;;;0.58;100.00
45050;BME280;61798;48.048;-1.928;2023-03-03T03:41:31;101427.78;;;0.52;100.00
45050;BME280;61798;48.048;-1.928;2023-03-03T03:43:38;101458.59;;;0.65;100.00
45050;BME280;61798;48.048;-1.928;2023-03-03T03:45:45;101424.19;;;0.40;100.00
45050;BME280;61798;48.048;-1.928;2023-03-03T03:47:53;101440.56;;;0.59;100.00
45050;BME280;61798;48.048;-1.928;2023-03-03T03:50:00;101463.56;;;0.44;100.00
45050;BME280;61798;48.048;-1.928;2023-03-03T03:52:07;101456.19;;;0.36;100.00
45050;BME280;61798;48.048;-1.928;2023-03-03T03:54:14;101448.78;;;0.15;100.00
45050;BME280;61798;48.048;-1.928;2023-03-03T03:56:33;101455.44;;;0.34;100.00
45050;BME280;61798;48.048;-1.928;2023-03-03T03:58:43;101473.47;;;0.53;100.00
45050;BME280;61798;48.048;-1.928;2023-03-03T04:01:00;101447.44;;;0.35;100.00
45050;BME280;61798;48.048;-1.928;2023-03-03T04:03:11;101472.84;;;0.49;100.00
45050;BME280;61798;48.048;-1.928;2023-03-03T04:05:54;101465.03;;;0.35;100.00
45050;BME280;61798;48.048;-1.928;2023-03-03T04:08:06;101463.66;;;0.29;100.00
45050;BME280;61798;48.048;-1.928;2023-03-03T04:10:30;101468.94;;;0.42;100.00
45050;BME280;61798;48.048;-1.928;2023-03-03T04:12:46;101445.50;;;0.37;100.00
45050;BME280;61798;48.048;-1.928;2023-03-03T04:17:21;101470.94;;;0.78;100.00
45050;BME280;61798;48.048;-1.928;2023-03-03T04:19:36;101468.84;;;0.70;100.00
45050;BME280;61798;48.048;-1.928;2023-03-03T04:21:53;101477.69;;;0.69;100.00
45050;BME280;61798;48.048;-1.928;2023-03-03T04:24:22;101470.31;;;0.74;100.00
45050;BME280;61798;48.048;-1.928;2023-03-03T04:26:35;101459.34;;;0.54;100.00
45050;BME280;61798;48.048;-1.928;2023-03-03T04:28:43;101438.22;;;0.41;100.00
45050;BME280;61798;48.048;-1.928;2023-03-03T04:30:49;101475.69;;;0.59;100.00
45050;BME280;61798;48.048;-1.928;2023-03-03T04:32:55;101468.41;;;0.63;100.00
45050;BME280;61798;48.048;-1.928;2023-03-03T04:35:01;101470.75;;;0.55;100.00
45050;BME280;61798;48.048;-1.928;2023-03-03T04:37:08;101463.78;;;0.67;100.00
45050;BME280;61798;48.048;-1.928;2023-03-03T04:39:14;101461.97;;;0.67;100.00
45050;BME280;61798;48.048;-1.928;2023-03-03T04:41:22;101461.84;;;0.69;100.00
45050;BME280;61798;48.048;-1.928;2023-03-03T04:43:29;101469.66;;;0.83;100.00
45050;BME280;61798;48.048;-1.928;2023-03-03T04:45:36;101463.03;;;0.65;100.00
45050;BME280;61798;48.048;-1.928;2023-03-03T04:47:45;101466.59;;;0.77;100.00
45050;BME280;61798;48.048;-1.928;2023-03-03T04:49:52;101462.72;;;0.69;100.00
45050;BME280;61798;48.048;-1.928;2023-03-03T04:52:00;101438.03;;;0.57;100.00
45050;BME280;61798;48.048;-1.928;2023-03-03T04:54:07;101455.41;;;0.60;100.00
45050;BME280;61798;48.048;-1.928;2023-03-03T04:56:14;101418.09;;;0.40;100.00
45050;BME280;61798;48.048;-1.928;2023-03-03T04:58:24;101416.63;;;0.36;100.00
45050;BME280;61798;48.048;-1.928;2023-03-03T05:00:31;101448.56;;;0.57;100.00
45050;BME280;61798;48.048;-1.928;2023-03-03T05:02:39;101412.69;;;0.28;100.00
45050;BME280;61798;48.048;-1.928;2023-03-03T05:04:47;101422.19;;;0.44;100.00
45050;BME280;61798;48.048;-1.928;2023-03-03T05:06:55;101453.31;;;0.65;100.00
45050;BME280;61798;48.048;-1.928;2023-03-03T05:09:07;101447.72;;;0.70;100.00
45050;BME280;61798;48.048;-1.928;2023-03-03T05:11:15;101469.38;;;0.75;100.00
45050;BME280;61798;48.048;-1.928;2023-03-03T05:13:24;101466.81;;;0.73;100.00
45050;BME280;61798;48.048;-1.928;2023-03-03T05:15:33;101448.78;;;0.67;100.00
45050;BME280;61798;48.048;-1.928;2023-03-03T05:17:41;101469.66;;;0.83;100.00
45050;BME280;61798;48.048;-1.928;2023-03-03T05:19:48;101477.38;;;0.73;100.00
45050;BME280;61798;48.048;-1.928;2023-03-03T05:21:57;101469.28;;;0.63;100.00
45050;BME280;61798;48.048;-1.928;2023-03-03T05:24:06;101473.34;;;0.68;100.00
45050;BME280;61798;48.048;-1.928;2023-03-03T05:26:14;101471.69;;;0.67;100.00
45050;BME280;61798;48.048;-1.928;2023-03-03T05:28:24;101463.34;;;0.60;100.00
45050;BME280;61798;48.048;-1.928;2023-03-03T05:30:34;101478.44;;;0.71;100.00
45050;BME280;61798;48.048;-1.928;2023-03-03T05:32:41;101460.91;;;0.57;100.00
45050;BME280;61798;48.048;-1.928;2023-03-03T05:34:48;101449.22;;;0.48;100.00
45050;BME280;61798;48.048;-1.928;2023-03-03T05:36:55;101469.47;;;0.60;100.00
45050;BME280;61798;48.048;-1.928;2023-03-03T05:39:03;101459.25;;;0.56;100.00
45050;BME280;61798;48.048;-1.928;2023-03-03T05:41:10;101477.38;;;0.60;100.00
45050;BME280;61798;48.048;-1.928;2023-03-03T05:43:18;101461.00;;;0.68;100.00
45050;BME280;61798;48.048;-1.928;2023-03-03T05:45:26;101465.66;;;0.65;100.00
45050;BME280;61798;48.048;-1.928;2023-03-03T05:47:33;101475.06;;;0.56;100.00
45050;BME280;61798;48.048;-1.928;2023-03-03T05:49:40;101474.63;;;0.75;100.00
45050;BME280;61798;48.048;-1.928;2023-03-03T05:51:48;101461.75;;;0.70;100.00
45050;BME280;61798;48.048;-1.928;2023-03-03T05:53:55;101469.91;;;0.67;100.00
45050;BME280;61798;48.048;-1.928;2023-03-03T05:56:02;101464.41;;;0.57;100.00
45050;BME280;61798;48.048;-1.928;2023-03-03T05:58:09;101475.56;;;0.61;100.00
45050;BME280;61798;48.048;-1.928;2023-03-03T06:00:18;101471.59;;;0.55;100.00
45050;BME280;61798;48.048;-1.928;2023-03-03T06:02:26;101493.00;;;0.63;100.00
45050;BME280;61798;48.048;-1.928;2023-03-03T06:04:34;101467.56;;;0.49;100.00
45050;BME280;61798;48.048;-1.928;2023-03-03T06:06:41;101480.03;;;0.47;100.00
45050;BME280;61798;48.048;-1.928;2023-03-03T06:08:49;101493.72;;;0.52;100.00
45050;BME280;61798;48.048;-1.928;2023-03-03T06:10:56;101501.97;;;0.61;100.00
45050;BME280;61798;48.048;-1.928;2023-03-03T06:13:03;101499.31;;;0.61;100.00
45050;BME280;61798;48.048;-1.928;2023-03-03T06:15:10;101494.81;;;0.63;100.00
45050;BME280;61798;48.048;-1.928;2023-03-03T06:17:16;101495.63;;;0.50;100.00
45050;BME280;61798;48.048;-1.928;2023-03-03T06:19:24;101491.22;;;0.51;100.00
45050;BME280;61798;48.048;-1.928;2023-03-03T06:21:31;101491.09;;;0.52;100.00
45050;BME280;61798;48.048;-1.928;2023-03-03T06:23:38;101504.41;;;0.51;100.00
45050;BME280;61798;48.048;-1.928;2023-03-03T06:25:46;101491.72;;;0.43;100.00
45050;BME280;61798;48.048;-1.928;2023-03-03T06:27:54;101490.66;;;0.33;100.00
45050;BME280;61798;48.048;-1.928;2023-03-03T06:30:02;101499.09;;;0.38;100.00
45050;BME280;61798;48.048;-1.928;2023-03-03T06:32:10;101511.22;;;0.40;100.00
45050;BME280;61798;48.048;-1.928;2023-03-03T06:34:16;101486.53;;;0.28;100.00
45050;BME280;61798;48.048;-1.928;2023-03-03T06:36:24;101512.38;;;0.36;100.00
45050;BME280;61798;48.048;-1.928;2023-03-03T06:38:32;101515.47;;;0.43;100.00
45050;BME280;61798;48.048;-1.928;2023-03-03T06:40:38;101522.63;;;0.41;100.00
45050;BME280;61798;48.048;-1.928;2023-03-03T06:42:45;101533.81;;;0.45;100.00
45050;BME280;61798;48.048;-1.928;2023-03-03T06:44:51;101550.69;;;0.42;100.00
45050;BME280;61798;48.048;-1.928;2023-03-03T06:46:58;101546.69;;;0.49;100.00
45050;BME280;61798;48.048;-1.928;2023-03-03T06:49:04;101532.53;;;0.37;100.00
45050;BME280;61798;48.048;-1.928;2023-03-03T06:51:23;101555.22;;;0.40;100.00
45050;BME280;61798;48.048;-1.928;2023-03-03T06:53:34;101556.19;;;0.39;100.00
45050;BME280;61798;48.048;-1.928;2023-03-03T06:55:40;101563.03;;;0.41;100.00
45050;BME280;61798;48.048;-1.928;2023-03-03T06:57:49;101551.63;;;0.41;100.00
45050;BME280;61798;48.048;-1.928;2023-03-03T07:00:23;101567.59;;;0.52;100.00
45050;BME280;61798;48.048;-1.928;2023-03-03T07:02:47;101577.91;;;0.43;100.00
45050;BME280;61798;48.048;-1.928;2023-03-03T07:05:00;101574.63;;;0.39;100.00
45050;BME280;61798;48.048;-1.928;2023-03-03T07:07:20;101575.66;;;0.36;100.00
45050;BME280;61798;48.048;-1.928;2023-03-03T07:09:28;101575.59;;;0.38;100.00
45050;BME280;61798;48.048;-1.928;2023-03-03T07:11:35;101572.72;;;0.28;100.00
45050;BME280;61798;48.048;-1.928;2023-03-03T07:13:49;101588.03;;;0.36;100.00
45050;BME280;61798;48.048;-1.928;2023-03-03T07:15:59;101593.31;;;0.36;100.00
45050;BME280;61798;48.048;-1.928;2023-03-03T07:18:25;101593.09;;;0.39;100.00
45050;BME280;61798;48.048;-1.928;2023-03-03T07:20:43;101597.72;;;0.35;100.00
45050;BME280;61798;48.048;-1.928;2023-03-03T07:22:53;101583.44;;;0.25;100.00
45050;BME280;61798;48.048;-1.928;2023-03-03T07:25:20;101598.75;;;0.33;100.00
45050;BME280;61798;48.048;-1.928;2023-03-03T07:27:31;101597.53;;;0.38;100.00
45050;BME280;61798;48.048;-1.928;2023-03-03T07:29:40;101601.09;;;0.37;100.00
45050;BME280;61798;48.048;-1.928;2023-03-03T07:32:00;101591.59;;;0.35;100.00
45050;BME280;61798;48.048;-1.928;2023-03-03T07:34:21;101599.88;;;0.43;100.00
45050;BME280;61798;48.048;-1.928;2023-03-03T07:36:42;101573.44;;;0.30;100.00
45050;BME280;61798;48.048;-1.928;2023-03-03T07:38:58;101612.75;;;0.48;100.00
45050;BME280;61798;48.048;-1.928;2023-03-03T07:41:14;101611.69;;;0.50;100.00
45050;BME280;61798;48.048;-1.928;2023-03-03T07:43:40;101624.66;;;0.54;100.00
45050;BME280;61798;48.048;-1.928;2023-03-03T07:45:49;101602.59;;;0.41;100.00
45050;BME280;61798;48.048;-1.928;2023-03-03T07:48:24;101627.09;;;0.57;100.00
45050;BME280;61798;48.048;-1.928;2023-03-03T07:50:33;101613.56;;;0.48;100.00
45050;BME280;61798;48.048;-1.928;2023-03-03T07:52:45;101631.22;;;0.61;100.00
45050;BME280;61798;48.048;-1.928;2023-03-03T07:54:59;101644.84;;;0.68;100.00
45050;BME280;61798;48.048;-1.928;2023-03-03T07:57:26;101633.47;;;0.67;100.00
45050;BME280;61798;48.048;-1.928;2023-03-03T07:59:37;101640.88;;;0.75;100.00
45050;BME280;61798;48.048;-1.928;2023-03-03T08:01:53;101648.28;;;0.83;100.00
45050;BME280;61798;48.048;-1.928;2023-03-03T08:04:44;101644.47;;;0.87;100.00
45050;BME280;61798;48.048;-1.928;2023-03-03T08:06:59;101649.34;;;0.93;100.00
45050;BME280;61798;48.048;-1.928;2023-03-03T08:11:20;101644.38;;;1.02;100.00
45050;BME280;61798;48.048;-1.928;2023-03-03T08:13:37;101645.66;;;1.09;100.00
45050;BME280;61798;48.048;-1.928;2023-03-03T08:16:03;101621.56;;;1.01;100.00
45050;BME280;61798;48.048;-1.928;2023-03-03T08:18:37;101645.53;;;1.24;100.00
45050;BME280;61798;48.048;-1.928;2023-03-03T08:21:13;101619.66;;;1.16;100.00
45050;BME280;61798;48.048;-1.928;2023-03-03T08:23:24;101634.44;;;1.32;100.00
45050;BME280;61798;48.048;-1.928;2023-03-03T08:25:35;101647.66;;;1.45;100.00
45050;BME280;61798;48.048;-1.928;2023-03-03T08:27:46;101615.56;;;1.25;100.00
45050;BME280;61798;48.048;-1.928;2023-03-03T08:29:54;101626.34;;;1.35;100.00
45050;BME280;61798;48.048;-1.928;2023-03-03T08:32:05;101603.28;;;1.37;100.00
45050;BME280;61798;48.048;-1.928;2023-03-03T08:34:17;101646.69;;;1.59;100.00
45050;BME280;61798;48.048;-1.928;2023-03-03T08:36:28;101617.19;;;1.52;100.00
45050;BME280;61798;48.048;-1.928;2023-03-03T08:38:39;101651.59;;;1.90;100.00
45050;BME280;61798;48.048;-1.928;2023-03-03T08:40:47;101650.97;;;1.86;100.00
45050;BME280;61798;48.048;-1.928;2023-03-03T08:42:55;101643.50;;;2.05;100.00
45050;BME280;61798;48.048;-1.928;2023-03-03T08:45:06;101630.75;;;1.98;100.00
45050;BME280;61798;48.048;-1.928;2023-03-03T08:47:22;101633.50;;;2.21;100.00
45050;BME280;61798;48.048;-1.928;2023-03-03T08:49:28;101641.03;;;2.39;100.00
45050;BME280;61798;48.048;-1.928;2023-03-03T08:51:35;101645.66;;;2.24;100.00
45050;BME280;61798;48.048;-1.928;2023-03-03T08:53:42;101652.13;;;2.81;100.00
45050;BME280;61798;48.048;-1.928;2023-03-03T08:55:51;101650.94;;;2.85;100.00
45050;BME280;61798;48.048;-1.928;2023-03-03T08:58:01;101652.63;;;2.86;100.00
45050;BME280;61798;48.048;-1.928;2023-03-03T09:00:12;101627.28;;;3.06;100.00
45050;BME280;61798;48.048;-1.928;2023-03-03T09:02:20;101653.53;;;3.21;100.00
45050;BME280;61798;48.048;-1.928;2023-03-03T09:04:26;101635.34;;;3.28;100.00
45050;BME280;61798;48.048;-1.928;2023-03-03T09:06:34;101651.84;;;3.09;100.00
45050;BME280;61798;48.048;-1.928;2023-03-03T09:08:41;101608.97;;;3.26;100.00
45050;BME280;61798;48.048;-1.928;2023-03-03T09:10:50;101606.47;;;3.13;100.00
45050;BME280;61798;48.048;-1.928;2023-03-03T09:13:06;101642.94;;;3.56;100.00
45050;BME280;61798;48.048;-1.928;2023-03-03T09:15:26;101644.16;;;3.63;100.00
45050;BME280;61798;48.048;-1.928;2023-03-03T09:17:37;101637.06;;;3.29;100.00
45050;BME280;61798;48.048;-1.928;2023-03-03T09:19:45;101633.06;;;3.35;100.00
45050;BME280;61798;48.048;-1.928;2023-03-03T09:22:00;101643.19;;;3.53;100.00
45050;BME280;61798;48.048;-1.928;2023-03-03T09:24:21;101634.25;;;3.77;100.00
45050;BME280;61798;48.048;-1.928;2023-03-03T09:26:47;101646.63;;;3.99;100.00
45050;BME280;61798;48.048;-1.928;2023-03-03T09:29:00;101644.13;;;3.86;100.00
45050;BME280;61798;48.048;-1.928;2023-03-03T09:31:35;101644.84;;;3.88;100.00
45050;BME280;61798;48.048;-1.928;2023-03-03T09:33:47;101631.84;;;3.85;100.00
45050;BME280;61798;48.048;-1.928;2023-03-03T09:36:24;101634.94;;;3.90;100.00
45050;BME280;61798;48.048;-1.928;2023-03-03T09:38:41;101641.69;;;3.95;100.00
45050;BME280;61798;48.048;-1.928;2023-03-03T09:49:01;101639.97;;;4.17;100.00
45050;BME280;61798;48.048;-1.928;2023-03-03T09:51:30;101625.53;;;4.09;100.00
45050;BME280;61798;48.048;-1.928;2023-03-03T09:53:59;101644.09;;;4.09;100.00
45050;BME280;61798;48.048;-1.928;2023-03-03T09:58:52;101640.91;;;4.16;100.00
45050;BME280;61798;48.048;-1.928;2023-03-03T10:01:36;101639.97;;;4.17;100.00
45050;BME280;61798;48.048;-1.928;2023-03-03T10:06:46;101637.44;;;4.48;100.00
45050;BME280;61798;48.048;-1.928;2023-03-03T10:11:53;101634.59;;;4.83;100.00
45050;BME280;61798;48.048;-1.928;2023-03-03T10:14:21;101610.72;;;4.61;100.00
45050;BME280;61798;48.048;-1.928;2023-03-03T10:19:40;101631.59;;;4.54;100.00
45050;BME280;61798;48.048;-1.928;2023-03-03T10:52:02;101619.31;;;5.69;100.00
45050;BME280;61798;48.048;-1.928;2023-03-03T10:54:53;101599.59;;;5.72;100.00
45050;BME280;61798;48.048;-1.928;2023-03-03T10:57:23;101628.03;;;5.81;100.00
45050;BME280;61798;48.048;-1.928;2023-03-03T11:00:04;101614.16;;;5.68;100.00
45050;BME280;61798;48.048;-1.928;2023-03-03T11:02:25;101620.31;;;5.78;100.00
45050;BME280;61798;48.048;-1.928;2023-03-03T11:07:08;101618.00;;;5.12;100.00
45050;BME280;61798;48.048;-1.928;2023-03-03T11:21:21;101618.69;;;6.07;100.00
45050;BME280;61798;48.048;-1.928;2023-03-03T11:24:01;101612.63;;;5.75;100.00
45050;BME280;61798;48.048;-1.928;2023-03-03T11:26:35;101621.34;;;5.97;100.00
45050;BME280;61798;48.048;-1.928;2023-03-03T11:31:29;101623.59;;;5.92;100.00
45050;BME280;61798;48.048;-1.928;2023-03-03T11:40:44;101616.75;;;6.09;100.00
45050;BME280;61798;48.048;-1.928;2023-03-03T11:44:03;101624.31;;;6.04;100.00
45050;BME280;61798;48.048;-1.928;2023-03-03T11:45:47;101627.00;;;6.34;100.00
45050;BME280;61798;48.048;-1.928;2023-03-03T11:48:17;101613.69;;;6.34;100.00
45050;BME280;61798;48.048;-1.928;2023-03-03T11:50:31;101616.06;;;6.67;100.00
45050;BME280;61798;48.048;-1.928;2023-03-03T11:52:51;101555.13;;;6.04;100.00
45050;BME280;61798;48.048;-1.928;2023-03-03T11:55:14;101613.97;;;6.31;100.00
45050;BME280;61798;48.048;-1.928;2023-03-03T11:57:31;101609.19;;;6.54;100.00
45050;BME280;61798;48.048;-1.928;2023-03-03T11:59:48;101608.91;;;6.68;100.00
45050;BME280;61798;48.048;-1.928;2023-03-03T12:04:42;101598.97;;;6.10;100.00
45050;BME280;61798;48.048;-1.928;2023-03-03T12:14:12;101593.34;;;6.53;100.00
45050;BME280;61798;48.048;-1.928;2023-03-03T12:25:46;101582.06;;;6.99;100.00
45050;BME280;61798;48.048;-1.928;2023-03-03T12:28:18;101564.31;;;6.80;100.00
45050;BME280;61798;48.048;-1.928;2023-03-03T12:40:34;101561.53;;;7.38;100.00
45050;BME280;61798;48.048;-1.928;2023-03-03T12:47:54;101552.34;;;7.50;100.00
45050;BME280;61798;48.048;-1.928;2023-03-03T13:03:35;101524.06;;;7.39;100.00
45050;BME280;61798;48.048;-1.928;2023-03-03T13:08:48;101508.25;;;7.75;100.00
45050;BME280;61798;48.048;-1.928;2023-03-03T13:16:47;101492.44;;;8.00;100.00
45050;BME280;61798;48.048;-1.928;2023-03-03T13:21:46;101501.59;;;8.16;100.00
45050;BME280;61798;48.048;-1.928;2023-03-03T13:24:24;101487.53;;;8.13;100.00
45050;BME280;61798;48.048;-1.928;2023-03-03T13:29:36;101490.44;;;8.02;100.00
45050;BME280;61798;48.048;-1.928;2023-03-03T13:31:50;101489.53;;;8.11;100.00
45050;BME280;61798;48.048;-1.928;2023-03-03T13:34:01;101481.34;;;8.13;100.00
45050;BME280;61798;48.048;-1.928;2023-03-03T13:36:13;101483.47;;;8.28;100.00
45050;BME280;61798;48.048;-1.928;2023-03-03T13:38:34;101477.44;;;8.25;100.00
45050;BME280;61798;48.048;-1.928;2023-03-03T13:41:00;101474.16;;;8.32;100.00
45050;BME280;61798;48.048;-1.928;2023-03-03T13:43:45;101473.91;;;8.43;100.00
45050;BME280;61798;48.048;-1.928;2023-03-03T13:46:07;101453.50;;;8.42;100.00
45050;BME280;61798;48.048;-1.928;2023-03-03T13:56:36;101453.88;;;8.48;100.00
45050;BME280;61798;48.048;-1.928;2023-03-03T13:59:19;101457.53;;;8.46;100.00
45050;BME280;61798;48.048;-1.928;2023-03-03T14:06:30;101445.75;;;8.57;100.00
45050;BME280;61798;48.048;-1.928;2023-03-03T14:11:59;101464.00;;;8.62;100.00
45050;BME280;61798;48.048;-1.928;2023-03-03T14:17:02;101460.97;;;9.01;100.00
45050;BME280;61798;48.048;-1.928;2023-03-03T14:19:43;101447.38;;;8.50;100.00
45050;BME280;61798;48.048;-1.928;2023-03-03T14:22:21;101446.47;;;8.68;100.00